Time;durP1;ratioP1;P1;durP2;ratioP2;P2;SDS_P1;SDS_P2;PMS_P1;PMS_P2;Temp;Humidity;BMP_temperature;BMP_pressure;BME280_temperature;BME280_humidity;BME280_pressure;Samples;Min_cycle;Max_cycle;Signal;HPM_P1;HPM_P2
2020/12/23 00:00:52;;;;;;;3.28;1.92;;;;;;;9.02;56.59;101411.50;5020917;28;20138;-71
2020/12/23 00:03:18;;;;;;;4.40;2.40;;;;;;;9.03;56.96;101409.78;5020830;28;20068;-71
2020/12/23 00:05:43;;;;;;;6.40;2.08;;;;;;;9.06;56.81;101402.03;5003517;28;20034;-70
2020/12/23 00:08:09;;;;;;;7.05;2.50;;;;;;;9.01;56.54;101393.44;5005428;28;20103;-71
2020/12/23 00:10:35;;;;;;;8.73;1.80;;;;;;;9.06;55.77;101396.88;4996810;28;20038;-71
2020/12/23 00:13:00;;;;;;;5.90;1.52;;;;;;;8.94;55.71;101398.56;5006411;28;20025;-71
2020/12/23 00:15:26;;;;;;;3.28;1.48;;;;;;;8.86;55.20;101394.22;5004661;28;20664;-70
2020/12/23 00:17:51;;;;;;;9.13;1.40;;;;;;;8.73;55.57;101395.91;5016226;28;21409;-72
2020/12/23 00:20:17;;;;;;;3.67;2.03;;;;;;;8.72;55.74;101395.03;5005354;28;20114;-71
2020/12/23 00:22:42;;;;;;;8.88;2.00;;;;;;;8.76;56.00;101405.38;5006310;28;20110;-71
2020/12/23 00:25:08;;;;;;;5.63;1.70;;;;;;;8.67;55.71;101398.44;5005243;28;20120;-71
2020/12/23 00:27:33;;;;;;;2.72;1.38;;;;;;;8.61;55.64;101393.25;5006663;28;20041;-71
2020/12/23 00:29:59;;;;;;;2.95;1.55;;;;;;;8.51;55.86;101393.19;5020317;28;20084;-71
2020/12/23 00:32:28;;;;;;;3.00;1.50;;;;;;;8.44;56.11;101401.75;5004936;28;20390;-71
2020/12/23 00:34:53;;;;;;;3.28;1.63;;;;;;;8.43;56.38;101405.16;5019963;28;20025;-71
2020/12/23 00:37:19;;;;;;;5.07;1.73;;;;;;;8.47;56.35;101409.47;5005738;28;20037;-70
2020/12/23 00:39:44;;;;;;;3.55;1.77;;;;;;;8.50;56.25;101394.03;5021231;28;20462;-71
2020/12/23 00:42:10;;;;;;;1.77;1.27;;;;;;;8.46;56.01;101400.03;5020612;28;20198;-71
2020/12/23 00:44:35;;;;;;;3.47;1.45;;;;;;;8.52;55.59;101394.91;5019845;28;20052;-70
2020/12/23 00:47:01;;;;;;;3.45;1.92;;;;;;;8.54;55.67;101396.66;5020897;28;20033;-70
2020/12/23 00:49:26;;;;;;;5.80;1.85;;;;;;;8.46;55.32;101394.00;5020289;28;20042;-71
2020/12/23 00:51:52;;;;;;;1.85;1.02;;;;;;;8.37;55.38;101405.06;5003901;28;20130;-70
2020/12/23 00:54:18;;;;;;;3.28;1.33;;;;;;;8.31;55.87;101398.19;5020594;28;20135;-70
2020/12/23 00:56:44;;;;;;;5.88;1.83;;;;;;;8.26;55.88;101401.56;5019349;28;20041;-71
2020/12/23 00:59:09;;;;;;;2.05;1.40;;;;;;;8.15;55.99;101398.06;5020843;28;20400;-71
2020/12/23 01:01:35;;;;;;;2.08;1.30;;;;;;;8.09;55.98;101398.88;5018443;28;20052;-71
2020/12/23 01:04:00;;;;;;;1.83;1.10;;;;;;;8.04;56.10;101409.16;5020241;28;20502;-71
2020/12/23 01:06:26;;;;;;;3.38;1.23;;;;;;;8.07;56.01;101406.59;5004622;28;20042;-70
2020/12/23 01:08:51;;;;;;;3.05;1.45;;;;;;;8.13;55.96;101407.47;5003965;28;20079;-71
2020/12/23 01:11:17;;;;;;;3.13;1.40;;;;;;;8.10;55.66;101411.78;5004730;28;20040;-71
2020/12/23 01:13:42;;;;;;;1.65;0.98;;;;;;;8.09;55.72;101424.63;5021598;28;20212;-71
2020/12/23 01:16:08;;;;;;;4.15;1.77;;;;;;;8.09;55.78;101420.34;5004609;28;20037;-71
2020/12/23 01:18:34;;;;;;;3.50;1.77;;;;;;;8.03;55.64;101428.00;5007057;28;20041;-70
2020/12/23 01:20:59;;;;;;;5.07;1.52;;;;;;;8.07;55.61;101422.03;5021578;28;20411;-71
2020/12/23 01:23:25;;;;;;;4.25;1.77;;;;;;;8.03;55.49;101424.56;5006219;28;20160;-70
2020/12/23 01:25:52;;;;;;;3.90;1.77;;;;;;;7.97;55.62;101434.81;5020534;28;20038;-71
2020/12/23 01:28:17;;;;;;;3.53;1.55;;;;;;;8.00;55.76;101433.13;5004769;28;20062;-70
2020/12/23 01:30:43;;;;;;;2.50;1.20;;;;;;;8.03;55.72;101433.16;5008369;28;20141;-71
2020/12/23 01:33:09;;;;;;;1.90;1.50;;;;;;;7.97;56.02;101429.66;5005151;28;20040;-70
2020/12/23 01:35:34;;;;;;;1.85;0.90;;;;;;;7.89;56.24;101427.03;5003571;28;20187;-71
2020/12/23 01:38:00;;;;;;;3.10;1.50;;;;;;;7.84;56.25;101428.72;5008420;28;20025;-71
2020/12/23 01:40:25;;;;;;;14.88;1.70;;;;;;;7.83;56.35;101426.97;5025140;28;20510;-71
2020/12/23 01:42:51;;;;;;;3.22;1.73;;;;;;;7.85;56.75;101415.84;5007780;28;20129;-70
2020/12/23 01:45:16;;;;;;;6.70;1.45;;;;;;;7.85;56.80;101425.28;5009013;28;20049;-71
2020/12/23 01:47:44;;;;;;;2.28;1.15;;;;;;;7.92;56.35;101421.91;5008095;28;20045;-70
2020/12/23 01:50:14;;;;;;;4.63;1.50;;;;;;;7.86;56.26;101417.56;5024990;28;20053;-71
2020/12/23 01:52:39;;;;;;;3.65;1.35;;;;;;;7.86;56.03;101427.88;5019145;28;20034;-70
2020/12/23 01:55:11;;;;;;;2.58;1.23;;;;;;;7.80;56.38;101426.94;5008945;28;20135;-71
2020/12/23 01:57:36;;;;;;;2.28;1.10;;;;;;;7.85;56.19;101420.13;5008613;28;20403;-70
2020/12/23 02:00:06;;;;;;;2.85;1.13;;;;;;;7.86;56.44;101416.72;5007847;28;20030;-71
2020/12/23 02:02:42;;;;;;;2.55;1.10;;;;;;;8.01;56.42;101421.13;5007227;28;20458;-71
2020/12/23 02:05:08;;;;;;;2.63;1.60;;;;;;;8.10;56.36;101421.19;5009600;28;20044;-70
2020/12/23 02:07:35;;;;;;;2.92;1.63;;;;;;;8.03;56.45;101424.56;5007606;28;20032;-71
2020/12/23 02:10:03;;;;;;;2.17;1.25;;;;;;;8.08;56.62;101428.91;5009414;28;20519;-71
2020/12/23 02:12:29;;;;;;;1.83;1.50;;;;;;;8.18;56.49;101429.00;5023360;28;20034;-71
2020/12/23 02:14:56;;;;;;;2.45;1.67;;;;;;;8.08;56.13;101418.63;5007382;28;20121;-70
2020/12/23 02:17:22;;;;;;;1.88;1.35;;;;;;;8.07;56.27;101405.72;5006580;28;20083;-71
2020/12/23 02:19:50;;;;;;;1.80;1.48;;;;;;;8.02;56.49;101400.53;5007370;28;20082;-71
2020/12/23 02:22:37;;;;;;;2.33;1.58;;;;;;;8.03;56.47;101399.69;5006709;28;20492;-71
2020/12/23 02:25:03;;;;;;;3.35;1.80;;;;;;;7.98;56.23;101393.66;5022292;28;20121;-71
2020/12/23 02:27:29;;;;;;;2.60;1.83;;;;;;;8.01;56.71;101405.66;5008650;28;20392;-70
2020/12/23 02:29:56;;;;;;;5.20;1.98;;;;;;;8.08;56.31;101408.31;5008145;28;20109;-71
2020/12/23 02:32:22;;;;;;;3.70;2.00;;;;;;;8.04;56.23;101406.56;5008111;28;20033;-70
2020/12/23 02:34:48;;;;;;;2.25;1.60;;;;;;;7.99;56.26;101402.22;5008438;28;20033;-71
2020/12/23 02:37:15;;;;;;;2.65;2.08;;;;;;;7.96;56.40;101399.63;5009478;28;20122;-71
2020/12/23 02:39:42;;;;;;;3.45;2.30;;;;;;;7.93;56.48;101400.47;5008352;28;20476;-71
2020/12/23 02:42:09;;;;;;;2.55;1.90;;;;;;;7.96;56.23;101397.06;5009292;28;20538;-70
2020/12/23 02:44:34;;;;;;;1.98;1.77;;;;;;;7.90;56.30;101396.16;5005074;28;20069;-71
2020/12/23 02:47:03;;;;;;;2.30;2.10;;;;;;;7.81;56.37;101408.06;5008828;28;20053;-71
2020/12/23 02:49:29;;;;;;;2.42;2.08;;;;;;;7.86;56.28;101401.28;5007302;28;20083;-71
2020/12/23 02:51:58;;;;;;;2.58;2.08;;;;;;;7.81;56.21;101402.91;5024301;28;20037;-70
2020/12/23 02:54:24;;;;;;;2.35;1.95;;;;;;;7.74;56.41;101398.56;5007591;28;20057;-71
2020/12/23 02:56:50;;;;;;;3.13;2.10;;;;;;;7.77;56.22;101386.63;5023732;28;20069;-71
2020/12/23 02:59:16;;;;;;;1.92;1.65;;;;;;;7.77;56.19;101390.88;5023307;28;20088;-70
2020/12/23 03:01:42;;;;;;;1.90;1.58;;;;;;;7.78;56.11;101383.19;5006817;28;20033;-71
2020/12/23 03:04:08;;;;;;;8.07;2.42;;;;;;;7.73;56.02;101389.16;5006740;28;20479;-70
2020/12/23 03:06:34;;;;;;;1.92;1.73;;;;;;;7.71;56.23;101383.97;5008760;28;20033;-70
2020/12/23 03:09:00;;;;;;;7.53;2.25;;;;;;;7.65;56.22;101387.34;5022658;28;20030;-71
2020/12/23 03:11:26;;;;;;;5.63;2.45;;;;;;;7.74;55.99;101376.28;5008617;28;20045;-70
2020/12/23 03:13:51;;;;;;;3.55;1.70;;;;;;;7.76;56.21;101378.88;5007957;28;20046;-71
2020/12/23 03:16:17;;;;;;;2.67;2.38;;;;;;;7.76;56.21;101376.28;5008408;28;20050;-70
2020/12/23 03:18:42;;;;;;;3.08;2.40;;;;;;;7.77;56.26;101375.44;5009978;28;20030;-70
2020/12/23 03:21:09;;;;;;;2.30;1.98;;;;;;;7.73;56.38;101371.13;5021748;28;20041;-71
2020/12/23 03:23:35;;;;;;;2.33;1.90;;;;;;;7.64;56.55;101374.47;5007927;28;20033;-70
2020/12/23 03:26:02;;;;;;;3.40;2.40;;;;;;;7.68;56.20;101366.81;5022638;28;20025;-71
2020/12/23 03:28:27;;;;;;;5.88;2.53;;;;;;;7.65;56.40;101358.19;5008934;28;20033;-71
2020/12/23 03:30:53;;;;;;;4.70;2.83;;;;;;;7.61;56.19;101364.16;5007145;28;20033;-71
2020/12/23 03:33:19;;;;;;;2.92;2.53;;;;;;;7.64;56.18;101361.63;5010469;28;20033;-71
2020/12/23 03:35:44;;;;;;;4.25;2.15;;;;;;;7.71;56.03;101347.97;5005976;28;20045;-70
2020/12/23 03:38:10;;;;;;;7.22;2.05;;;;;;;7.64;56.09;101349.63;5008437;28;20058;-71
2020/12/23 03:40:36;;;;;;;2.95;2.33;;;;;;;7.64;56.26;101343.63;5006408;28;20137;-70
2020/12/23 03:43:02;;;;;;;3.35;3.00;;;;;;;7.67;56.37;101343.63;5024034;28;20042;-70
2020/12/23 03:45:28;;;;;;;2.63;2.17;;;;;;;7.74;56.19;101345.41;5023268;28;20038;-70
2020/12/23 03:47:53;;;;;;;2.28;1.75;;;;;;;7.67;56.33;101344.47;5008076;28;20128;-70
2020/12/23 03:50:19;;;;;;;4.25;1.95;;;;;;;7.72;56.07;101344.53;5008736;28;20109;-70
2020/12/23 03:52:45;;;;;;;3.30;1.90;;;;;;;7.79;56.12;101348.00;5008268;28;20099;-70
2020/12/23 03:55:11;;;;;;;3.28;1.85;;;;;;;7.78;56.05;101346.28;5023108;28;20083;-70
2020/12/23 03:57:36;;;;;;;2.08;1.77;;;;;;;7.80;56.06;101342.03;5006846;28;20308;-71
2020/12/23 04:00:07;;;;;;;2.50;1.90;;;;;;;7.64;56.08;101344.47;5023389;28;20061;-71
2020/12/23 04:02:40;;;;;;;2.17;1.80;;;;;;;7.75;56.24;101335.97;5020144;28;20046;-71
2020/12/23 04:05:07;;;;;;;1.95;1.75;;;;;;;7.73;55.81;101347.97;5023536;28;20046;-71
2020/12/23 04:07:33;;;;;;;2.58;2.10;;;;;;;7.68;55.83;101345.38;5008660;28;20026;-71
2020/12/23 04:09:59;;;;;;;2.05;1.85;;;;;;;7.58;55.98;101341.84;5011009;28;20037;-70
2020/12/23 04:12:25;;;;;;;2.50;1.40;;;;;;;7.54;55.93;101331.50;5008557;28;20038;-70
2020/12/23 04:14:51;;;;;;;2.28;2.08;;;;;;;7.56;56.12;101325.53;5005611;28;20369;-69
2020/12/23 04:17:16;;;;;;;1.85;1.67;;;;;;;7.55;55.98;101322.97;5023674;28;20065;-70
2020/12/23 04:19:42;;;;;;;3.58;2.67;;;;;;;7.51;55.92;101316.91;5010120;28;20037;-71
2020/12/23 04:22:08;;;;;;;2.50;2.08;;;;;;;7.51;56.00;101322.06;5009081;28;20037;-71
2020/12/23 04:24:33;;;;;;;3.33;1.75;;;;;;;7.58;55.49;101322.97;5006626;28;20507;-71
2020/12/23 04:26:59;;;;;;;4.32;2.28;;;;;;;7.42;55.85;101319.41;5023606;28;20058;-70
2020/12/23 04:29:25;;;;;;;2.97;1.80;;;;;;;7.37;55.73;101309.06;5007333;28;20109;-71
2020/12/23 04:31:50;;;;;;;1.88;1.40;;;;;;;7.47;55.50;101320.28;5021830;28;20041;-70
2020/12/23 04:34:16;;;;;;;2.15;1.73;;;;;;;7.37;55.72;101319.38;5009730;28;20037;-70
2020/12/23 04:36:42;;;;;;;2.00;1.80;;;;;;;7.36;55.78;101325.34;5004729;28;20295;-71
2020/12/23 04:39:08;;;;;;;3.38;1.83;;;;;;;7.26;55.57;101326.97;5023827;28;20182;-70
2020/12/23 04:41:34;;;;;;;1.95;1.42;;;;;;;7.37;55.65;101334.78;5007485;28;20037;-71
2020/12/23 04:44:04;;;;;;;2.00;1.52;;;;;;;7.26;55.79;101341.53;5008945;28;20080;-70
2020/12/23 04:46:33;;;;;;;2.35;1.58;;;;;;;7.21;55.92;101338.91;5007887;28;20061;-70
2020/12/23 04:49:00;;;;;;;2.00;1.52;;;;;;;7.20;55.78;101339.75;5023112;28;20034;-70
2020/12/23 04:51:31;;;;;;;1.95;1.83;;;;;;;7.13;55.96;101343.09;5008178;28;20169;-70
2020/12/23 04:53:59;;;;;;;3.28;1.92;;;;;;;7.17;56.24;101344.88;5021057;28;20332;-71
2020/12/23 04:56:30;;;;;;;3.85;1.73;;;;;;;7.03;56.48;101346.41;5021982;28;20103;-70
2020/12/23 04:58:58;;;;;;;2.30;1.58;;;;;;;7.19;56.03;101353.47;5006761;28;20033;-70
2020/12/23 05:01:24;;;;;;;3.35;2.05;;;;;;;7.15;56.16;101349.13;5005177;28;20407;-70
2020/12/23 05:03:51;;;;;;;2.70;1.98;;;;;;;7.10;56.06;101347.34;5005713;28;20029;-71
2020/12/23 05:06:17;;;;;;;2.42;1.88;;;;;;;7.08;55.95;101347.34;5021771;28;20044;-71
2020/12/23 05:08:43;;;;;;;3.08;2.03;;;;;;;7.09;56.07;101354.19;5005892;28;20294;-70
2020/12/23 05:11:10;;;;;;;3.75;2.28;;;;;;;7.04;56.23;101353.28;5023805;28;20032;-70
2020/12/23 05:13:36;;;;;;;2.50;2.25;;;;;;;7.19;56.09;101350.91;5009162;28;20041;-70
2020/12/23 05:16:05;;;;;;;3.35;2.65;;;;;;;7.14;56.20;101338.81;5010647;28;20029;-70
2020/12/23 05:18:36;;;;;;;2.80;2.00;;;;;;;7.09;56.24;101338.78;5006447;28;20135;-70
2020/12/23 05:21:14;;;;;;;3.55;1.98;;;;;;;7.17;56.52;101338.88;5009160;28;20077;-70
2020/12/23 05:23:48;;;;;;;20.35;2.65;;;;;;;7.13;56.60;101331.97;5004190;28;20396;-70
2020/12/23 05:26:15;;;;;;;7.07;3.00;;;;;;;7.15;56.42;101328.56;5025638;28;20033;-71
2020/12/23 05:28:42;;;;;;;2.40;1.98;;;;;;;7.18;56.38;101327.72;5006885;28;20026;-69
2020/12/23 05:31:13;;;;;;;23.60;3.15;;;;;;;7.06;56.19;101331.91;5024266;28;20045;-71
2020/12/23 05:33:41;;;;;;;3.70;2.55;;;;;;;7.04;56.53;101330.16;5022373;28;20475;-70
2020/12/23 05:36:10;;;;;;;3.70;2.10;;;;;;;7.12;56.43;101322.53;5023646;28;20114;-71
2020/12/23 05:38:36;;;;;;;5.43;3.35;;;;;;;7.18;56.46;101323.44;5024636;28;20444;-71
2020/12/23 05:41:04;;;;;;;10.52;3.63;;;;;;;7.08;56.52;101326.78;5023416;28;20929;-71
2020/12/23 05:43:31;;;;;;;4.38;1.98;;;;;;;7.10;56.75;101312.25;5007363;28;20038;-70
2020/12/23 05:45:58;;;;;;;10.10;3.20;;;;;;;7.17;56.64;101301.16;5007738;28;20044;-71
2020/12/23 05:48:25;;;;;;;9.38;3.08;;;;;;;7.39;56.50;101309.97;5006685;28;20041;-71
2020/12/23 05:50:51;;;;;;;5.32;3.03;;;;;;;7.30;56.63;101308.97;5024115;28;20061;-71
2020/12/23 05:53:17;;;;;;;3.47;2.47;;;;;;;7.56;56.58;101312.66;5008818;28;20076;-71
2020/12/23 05:55:47;;;;;;;8.40;2.75;;;;;;;7.66;56.22;101304.19;5005346;28;20424;-71
2020/12/23 05:58:32;;;;;;;19.48;4.90;;;;;;;7.53;56.31;101310.06;5023937;28;20499;-71
2020/12/23 06:00:59;;;;;;;28.58;4.57;;;;;;;7.51;56.12;101309.19;5004526;28;20026;-71
2020/12/23 06:03:57;;;;;;;9.15;4.13;;;;;;;7.46;56.22;101313.44;5007534;28;20117;-70
2020/12/23 06:06:25;;;;;;;17.10;4.05;;;;;;;7.45;56.17;101316.84;5023382;28;20034;-70
2020/12/23 06:08:56;;;;;;;5.43;3.35;;;;;;;7.51;56.05;101308.34;5007940;28;20091;-71
2020/12/23 06:11:29;;;;;;;5.25;2.90;;;;;;;7.53;56.26;101320.38;5023700;28;20029;-71
2020/12/23 06:14:16;;;;;;;7.47;3.97;;;;;;;7.57;56.54;101311.81;5008557;28;20061;-70
2020/12/23 06:16:51;;;;;;;4.70;3.33;;;;;;;7.63;56.48;101301.56;5006341;28;20088;-70
2020/12/23 06:19:19;;;;;;;6.68;3.25;;;;;;;7.62;56.10;101299.84;5008292;28;20292;-69
2020/12/23 06:21:45;;;;;;;7.90;4.03;;;;;;;7.61;56.15;101297.25;5022568;28;20519;-70
2020/12/23 06:24:13;;;;;;;12.70;4.10;;;;;;;7.60;56.50;101296.41;5006287;28;20034;-70
2020/12/23 06:26:41;;;;;;;14.02;3.88;;;;;;;7.46;56.43;101313.44;5009185;28;20036;-70
2020/12/23 06:29:12;;;;;;;4.78;3.45;;;;;;;7.49;56.60;101308.31;5023958;28;20018;-70
2020/12/23 06:31:44;;;;;;;3.25;2.15;;;;;;;7.47;56.71;101304.88;5006444;28;20042;-70
2020/12/23 06:34:18;;;;;;;3.10;2.80;;;;;;;7.58;56.56;101300.69;5009073;28;20092;-70
2020/12/23 06:36:45;;;;;;;4.25;3.38;;;;;;;7.56;56.52;101307.50;5007537;28;20445;-70
2020/12/23 06:39:32;;;;;;;3.80;3.40;;;;;;;7.57;56.65;101308.38;5008979;28;20125;-70
2020/12/23 06:42:00;;;;;;;5.13;3.45;;;;;;;7.68;56.45;101299.91;5008682;28;20026;-69
2020/12/23 06:44:44;;;;;;;11.30;3.65;;;;;;;7.67;56.74;101305.03;5023511;28;20129;-70
2020/12/23 06:47:17;;;;;;;7.47;3.40;;;;;;;7.68;56.53;101294.75;5006786;28;20102;-69
2020/12/23 06:49:46;;;;;;;6.70;3.55;;;;;;;7.62;56.84;101294.72;5023024;28;20403;-70
2020/12/23 06:52:24;;;;;;;14.65;3.00;;;;;;;7.60;56.92;101287.84;5023556;28;21110;-70
2020/12/23 06:54:56;;;;;;;4.38;2.70;;;;;;;7.68;56.91;101279.31;5024055;28;20121;-70
2020/12/23 06:57:36;;;;;;;3.70;3.15;;;;;;;7.74;56.66;101262.19;5006981;28;20050;-70
2020/12/23 07:00:06;;;;;;;18.13;3.53;;;;;;;7.82;56.75;101250.25;5017005;28;20038;-70
2020/12/23 07:02:45;;;;;;;16.15;3.63;;;;;;;7.50;57.46;101258.59;5005507;28;20068;-71
2020/12/23 07:05:12;;;;;;;5.05;3.75;;;;;;;7.85;56.72;101245.13;5006479;28;20034;-71
2020/12/23 07:07:42;;;;;;;21.60;3.65;;;;;;;7.92;55.84;101240.88;5005625;28;20026;-71
2020/12/23 07:10:15;;;;;;;5.35;3.40;;;;;;;7.80;56.35;101237.38;5024123;28;20049;-70
2020/12/23 07:13:10;;;;;;;3.47;2.63;;;;;;;7.81;56.47;101249.38;5005676;28;20033;-70
2020/12/23 07:15:41;;;;;;;11.35;3.45;;;;;;;7.78;56.38;101257.09;5008139;28;20034;-71
2020/12/23 07:18:16;;;;;;;25.75;3.75;;;;;;;7.47;57.45;101261.16;5024998;28;20486;-69
2020/12/23 07:20:44;;;;;;;5.85;2.85;;;;;;;7.80;56.88;101264.81;5004524;28;20038;-70
2020/12/23 07:23:16;;;;;;;3.67;3.08;;;;;;;7.95;56.90;101264.94;5023486;28;20483;-70
2020/12/23 07:25:44;;;;;;;;;;;;;;;8.03;56.58;101270.97;5046461;22;20044;-73
2020/12/23 07:28:11;;;;;;;4.20;2.92;;;;;;;8.14;56.59;101252.16;5039720;28;19920;-73
2020/12/23 07:30:39;;;;;;;3.97;3.00;;;;;;;8.17;56.56;101252.16;5043083;28;20044;-71
2020/12/23 07:33:09;;;;;;;9.63;2.88;;;;;;;8.02;56.61;101243.53;5049872;28;20025;-72
2020/12/23 07:35:36;;;;;;;3.28;2.42;;;;;;;8.04;57.14;101254.69;5047138;28;20029;-71
2020/12/23 07:38:04;;;;;;;23.40;2.97;;;;;;;8.18;57.07;101249.59;5049271;28;20040;-69
2020/12/23 07:40:31;;;;;;;23.77;4.18;;;;;;;8.25;56.65;101250.50;5055763;28;20061;-71
2020/12/23 07:42:57;;;;;;;39.50;4.35;;;;;;;8.24;57.11;101253.94;5055042;28;20032;-75
2020/12/23 07:45:25;;;;;;;45.53;4.65;;;;;;;8.20;57.12;101247.06;5052749;28;20044;-71
2020/12/23 07:48:03;;;;;;;35.92;4.72;;;;;;;8.28;56.84;101248.81;5053431;28;20487;-71
2020/12/23 07:50:34;;;;;;;26.90;5.10;;;;;;;8.36;56.88;101264.28;5046954;28;20062;-71
2020/12/23 07:53:13;;;;;;;15.30;3.63;;;;;;;8.51;57.11;101268.69;5041112;28;20040;-71
2020/12/23 07:55:43;;;;;;;10.77;3.03;;;;;;;8.54;57.11;101257.53;5063403;28;20040;-74
2020/12/23 07:58:10;;;;;;;11.73;4.03;;;;;;;8.66;57.14;101260.13;5050670;28;20477;-71
2020/12/23 08:00:38;;;;;;;6.32;4.18;;;;;;;8.78;57.45;101265.34;5047706;28;20124;-71
2020/12/23 08:03:08;;;;;;;28.95;5.13;;;;;;;8.76;57.17;101251.59;5048650;28;20032;-71
2020/12/23 08:05:34;;;;;;;28.42;5.18;;;;;;;8.87;57.22;101249.88;5050399;28;20591;-72
2020/12/23 08:08:00;;;;;;;16.48;4.53;;;;;;;8.99;57.14;101241.31;5049630;28;20060;-71
2020/12/23 08:10:25;;;;;;;35.45;5.00;;;;;;;8.97;57.73;101234.44;5031102;28;20056;-71
2020/12/23 08:12:52;;;;;;;15.23;4.85;;;;;;;9.00;57.64;101231.84;5042053;28;20116;-71
2020/12/23 08:15:18;;;;;;;6.18;4.13;;;;;;;9.05;57.65;101227.59;5045883;28;20393;-71
2020/12/23 08:17:43;;;;;;;21.92;5.38;;;;;;;9.07;57.57;101226.72;5045261;28;20106;-70
2020/12/23 08:20:11;;;;;;;22.17;5.45;;;;;;;9.19;57.68;101219.84;5046925;28;20040;-71
2020/12/23 08:22:39;;;;;;;12.23;4.75;;;;;;;9.23;57.69;101224.16;5045820;28;20033;-70
2020/12/23 08:25:08;;;;;;;11.07;5.28;;;;;;;9.35;57.50;101225.03;5047474;28;20044;-71
2020/12/23 08:27:35;;;;;;;9.60;5.00;;;;;;;9.49;57.41;101239.63;5044949;28;20063;-70
2020/12/23 08:30:08;;;;;;;21.13;6.85;;;;;;;9.52;57.42;101231.88;5048578;28;20036;-73
2020/12/23 08:32:37;;;;;;;14.95;5.40;;;;;;;9.60;57.72;101230.16;5045806;28;20477;-71
2020/12/23 08:35:04;;;;;;;17.35;7.22;;;;;;;9.71;57.44;101236.16;5048052;28;20071;-71
2020/12/23 08:37:33;;;;;;;14.93;7.20;;;;;;;9.74;57.54;101237.88;5043870;28;20452;-70
2020/12/23 08:39:59;;;;;;;21.10;6.88;;;;;;;9.76;57.63;101241.31;5045666;28;20029;-70
2020/12/23 08:42:25;;;;;;;16.88;7.03;;;;;;;9.85;57.81;101233.56;5046195;28;20040;-70
2020/12/23 08:44:55;;;;;;;15.93;6.80;;;;;;;9.89;57.54;101230.13;5045804;28;20029;-71
2020/12/23 08:47:31;;;;;;;16.92;7.10;;;;;;;9.94;57.72;101224.94;5044628;28;20072;-71
2020/12/23 08:49:58;;;;;;;20.92;7.60;;;;;;;10.01;57.76;101221.47;5045778;28;20460;-71
2020/12/23 08:52:25;;;;;;;22.15;6.45;;;;;;;10.01;57.79;101224.06;5032097;28;20064;-72
2020/12/23 08:54:51;;;;;;;14.50;6.70;;;;;;;9.90;58.16;101224.06;5047930;28;20056;-72
2020/12/23 08:57:23;;;;;;;9.32;5.85;;;;;;;10.02;57.74;101218.00;5045716;28;20481;-70
2020/12/23 08:59:48;;;;;;;10.52;6.40;;;;;;;10.07;57.76;101224.03;5045709;28;20082;-73
2020/12/23 09:02:16;;;;;;;15.45;5.82;;;;;;;10.13;57.83;101229.16;5039688;28;20080;-71
2020/12/23 09:04:42;;;;;;;9.57;6.03;;;;;;;10.26;57.19;101221.38;5044631;28;20049;-70
2020/12/23 09:07:08;;;;;;;13.20;5.93;;;;;;;10.36;57.60;101223.09;5043369;28;20433;-71
2020/12/23 09:09:34;;;;;;;11.35;6.10;;;;;;;10.46;57.41;101222.19;5044164;28;20041;-74
2020/12/23 09:12:02;;;;;;;11.65;7.07;;;;;;;10.52;57.45;101226.47;5044890;28;20122;-71
2020/12/23 09:14:38;;;;;;;13.25;7.53;;;;;;;10.56;57.62;101215.22;5045257;28;20064;-72
2020/12/23 09:17:06;;;;;;;16.25;7.55;;;;;;;10.56;57.79;101216.13;5041324;28;20021;-73
2020/12/23 09:19:41;;;;;;;15.20;8.65;;;;;;;10.63;57.94;101205.72;5040580;28;20082;-72
2020/12/23 09:22:06;;;;;;;13.18;8.35;;;;;;;10.67;57.76;101207.41;5041018;28;20154;-73
2020/12/23 09:24:32;;;;;;;15.18;8.48;;;;;;;10.75;58.17;101201.34;5041487;28;20045;-72
2020/12/23 09:26:57;;;;;;;17.10;9.52;;;;;;;10.86;57.91;101203.00;5039958;28;20490;-71
2020/12/23 09:29:23;;;;;;;12.85;7.90;;;;;;;10.97;57.65;101202.06;5046117;28;20040;-72
2020/12/23 09:31:55;;;;;;;13.68;7.30;;;;;;;11.02;57.76;101197.69;5044514;28;20133;-73
2020/12/23 09:34:23;;;;;;;20.77;7.82;;;;;;;10.95;58.36;101187.41;5042896;28;20159;-71
2020/12/23 09:36:56;;;;;;;14.02;7.95;;;;;;;10.98;58.57;101183.09;5046267;28;20029;-72
2020/12/23 09:39:22;;;;;;;14.73;8.07;;;;;;;11.11;58.44;101182.97;5046293;28;20573;-72
2020/12/23 09:41:59;;;;;;;16.15;8.30;;;;;;;11.23;58.12;101177.72;5043163;28;20074;-71
2020/12/23 09:44:24;;;;;;;12.68;7.57;;;;;;;11.29;57.71;101166.44;5044703;28;20536;-71
2020/12/23 09:46:50;;;;;;;16.95;8.20;;;;;;;11.36;57.92;101168.97;5040444;28;20033;-72
2020/12/23 09:49:15;;;;;;;18.48;8.93;;;;;;;11.36;58.42;101168.97;5043225;28;20033;-72
2020/12/23 09:51:46;;;;;;;17.27;9.18;;;;;;;11.51;57.62;101167.09;5027861;28;20118;-70
2020/12/23 09:54:12;;;;;;;18.63;8.75;;;;;;;11.52;58.11;101158.44;5044481;28;20063;-73
2020/12/23 09:56:37;;;;;;;16.02;8.98;;;;;;;11.63;57.85;101161.78;5028945;28;20132;-71
2020/12/23 09:59:03;;;;;;;15.52;8.35;;;;;;;11.54;58.06;101161.88;5049889;28;20045;-73
2020/12/23 10:01:28;;;;;;;12.05;8.00;;;;;;;11.56;57.90;101165.31;5049602;28;20048;-72
2020/12/23 10:03:54;;;;;;;16.10;9.15;;;;;;;11.69;57.71;101161.72;5048930;28;20111;-72
2020/12/23 10:06:19;;;;;;;12.63;8.27;;;;;;;11.58;58.18;101158.38;5044052;28;20103;-73
2020/12/23 10:08:45;;;;;;;16.20;9.13;;;;;;;11.53;58.40;101155.00;5046290;28;20375;-72
2020/12/23 10:11:10;;;;;;;13.40;8.63;;;;;;;11.67;58.37;101142.75;5044208;28;20041;-73
2020/12/23 10:13:36;;;;;;;16.17;7.82;;;;;;;11.69;58.51;101145.34;5059736;28;20034;-71
2020/12/23 10:16:02;;;;;;;15.43;8.35;;;;;;;11.82;58.01;101145.19;5047437;28;20051;-72
2020/12/23 10:18:27;;;;;;;12.73;8.00;;;;;;;11.81;58.03;101148.66;5043827;28;20049;-74
2020/12/23 10:20:55;;;;;;;16.75;7.88;;;;;;;11.86;57.92;101142.56;5043170;28;20037;-73
2020/12/23 10:23:20;;;;;;;19.65;6.28;;;;;;;11.89;57.83;101142.56;5050636;28;20050;-72
2020/12/23 10:25:46;;;;;;;11.88;7.53;;;;;;;11.94;58.01;101140.75;5047617;28;20036;-72
2020/12/23 10:28:13;;;;;;;12.15;7.40;;;;;;;11.91;57.76;101131.28;5047630;28;20025;-72
2020/12/23 10:30:39;;;;;;;13.93;6.80;;;;;;;11.85;57.98;101126.16;5048319;28;20519;-71
2020/12/23 10:33:04;;;;;;;14.50;8.10;;;;;;;11.87;58.17;101123.56;5047142;28;20477;-73
2020/12/23 10:35:30;;;;;;;11.73;6.90;;;;;;;11.85;57.79;101110.59;5048230;28;20124;-72
2020/12/23 10:37:55;;;;;;;12.93;6.93;;;;;;;11.84;57.95;101102.00;5047760;28;20090;-72
2020/12/23 10:40:21;;;;;;;14.38;7.28;;;;;;;11.91;58.06;101100.22;5049345;28;20497;-72
2020/12/23 10:42:48;;;;;;;9.43;6.72;;;;;;;11.95;58.02;101095.88;5047411;28;20044;-73
2020/12/23 10:45:13;;;;;;;11.38;6.90;;;;;;;12.00;58.07;101099.25;5048874;28;20406;-72
2020/12/23 10:47:39;;;;;;;13.80;6.68;;;;;;;11.90;58.24;101092.44;5047593;28;20140;-72
2020/12/23 10:50:04;;;;;;;14.70;7.28;;;;;;;11.98;57.81;101086.28;5049413;28;20359;-72
2020/12/23 10:52:30;;;;;;;12.18;6.35;;;;;;;12.04;57.99;101080.19;5047958;28;20037;-73
2020/12/23 10:54:56;;;;;;;10.65;7.28;;;;;;;12.01;57.96;101073.31;5045174;28;20033;-71
2020/12/23 10:57:21;;;;;;;13.45;7.50;;;;;;;12.00;58.26;101078.50;5046202;28;20390;-72
2020/12/23 10:59:47;;;;;;;12.30;6.40;;;;;;;11.98;58.22;101075.09;5046972;28;20037;-72
2020/12/23 11:02:12;;;;;;;11.02;6.75;;;;;;;12.13;57.75;101079.22;5046625;28;20115;-76
2020/12/23 11:04:38;;;;;;;15.30;6.20;;;;;;;12.15;57.90;101067.09;5046278;28;20029;-72
2020/12/23 11:07:04;;;;;;;13.82;6.32;;;;;;;12.17;57.74;101063.59;5046342;28;20037;-75
2020/12/23 11:09:29;;;;;;;11.30;6.93;;;;;;;12.17;57.91;101055.81;5051534;28;20163;-72
2020/12/23 11:11:55;;;;;;;9.65;6.45;;;;;;;12.21;57.72;101051.44;5051787;28;20041;-73
2020/12/23 11:14:21;;;;;;;12.68;6.43;;;;;;;12.25;57.51;101046.19;5047830;28;20041;-73
2020/12/23 11:16:50;;;;;;;10.40;5.90;;;;;;;12.27;57.89;101047.91;5045399;28;20034;-72
2020/12/23 11:19:19;;;;;;;10.57;5.90;;;;;;;12.12;58.09;101042.06;5045704;28;20033;-72
2020/12/23 11:21:45;;;;;;;12.40;6.47;;;;;;;12.10;58.60;101033.47;5047696;28;20569;-70
2020/12/23 11:24:14;;;;;;;11.73;6.65;;;;;;;12.12;58.29;101029.09;5048533;28;20032;-72
2020/12/23 11:26:40;;;;;;;13.82;5.93;;;;;;;12.25;58.15;101028.03;5044989;28;20056;-72
2020/12/23 11:29:06;;;;;;;12.45;6.78;;;;;;;12.17;58.19;101019.53;5044967;28;20108;-73
2020/12/23 11:31:31;;;;;;;7.82;5.28;;;;;;;12.23;58.06;101016.88;5046078;28;20124;-72